< < Back
Terminal Aerodrome Forecast


Current Version              Previous Versions:   1  2  3  4  5  6  7  8  9  

Terminal Aerodrome Forecast

729
FTUS42 KCHS 251700
TAFSAV
TAF
KSAV 251722Z 2518/2618 32005KT P6SM SKC
     FM252300 VRB02KT P6SM SKC=

Latest METAR

547
SAUS80 KWBC 251900 RRB
MTRSAV
METAR KSAV 251853Z 00000KT 10SM CLR 26/07 A2998 RMK AO2 SLP152
T02560072


USA.gov is the U.S. government's official web portal to all federal, state and local government web resources and services.